sensor_id;sensor_type;location;lat;lon;timestamp;P1;durP1;ratioP1;P2;durP2;ratioP2
37907;SDS011;23740;51.550;6.846;2023-12-20T00:02:30;17.17;;;7.78;;
37907;SDS011;23740;51.550;6.846;2023-12-20T00:05:14;15.55;;;6.90;;
37907;SDS011;23740;51.550;6.846;2023-12-20T00:07:42;14.80;;;7.18;;
37907;SDS011;23740;51.550;6.846;2023-12-20T00:10:12;13.93;;;5.95;;
37907;SDS011;23740;51.550;6.846;2023-12-20T00:12:40;15.05;;;6.78;;
37907;SDS011;23740;51.550;6.846;2023-12-20T00:15:10;14.10;;;6.43;;
37907;SDS011;23740;51.550;6.846;2023-12-20T00:17:38;14.32;;;6.18;;
37907;SDS011;23740;51.550;6.846;2023-12-20T00:20:07;16.13;;;6.15;;
37907;SDS011;23740;51.550;6.846;2023-12-20T00:22:35;13.07;;;6.28;;
37907;SDS011;23740;51.550;6.846;2023-12-20T00:25:03;14.52;;;6.45;;
37907;SDS011;23740;51.550;6.846;2023-12-20T00:27:33;14.18;;;6.93;;
37907;SDS011;23740;51.550;6.846;2023-12-20T00:30:01;12.48;;;5.63;;
37907;SDS011;23740;51.550;6.846;2023-12-20T00:32:29;15.10;;;6.40;;
37907;SDS011;23740;51.550;6.846;2023-12-20T00:34:57;13.73;;;5.65;;
37907;SDS011;23740;51.550;6.846;2023-12-20T00:37:25;12.55;;;6.20;;
37907;SDS011;23740;51.550;6.846;2023-12-20T00:39:52;12.48;;;5.50;;
37907;SDS011;23740;51.550;6.846;2023-12-20T00:42:20;13.88;;;5.80;;
37907;SDS011;23740;51.550;6.846;2023-12-20T00:44:49;13.43;;;5.80;;
37907;SDS011;23740;51.550;6.846;2023-12-20T00:47:18;13.50;;;4.95;;
37907;SDS011;23740;51.550;6.846;2023-12-20T00:49:45;14.45;;;5.22;;
37907;SDS011;23740;51.550;6.846;2023-12-20T00:52:13;10.18;;;5.00;;
37907;SDS011;23740;51.550;6.846;2023-12-20T00:54:43;9.52;;;5.00;;
37907;SDS011;23740;51.550;6.846;2023-12-20T00:57:11;10.18;;;4.20;;
37907;SDS011;23740;51.550;6.846;2023-12-20T00:59:39;10.10;;;5.10;;
37907;SDS011;23740;51.550;6.846;2023-12-20T01:02:08;11.10;;;4.18;;
37907;SDS011;23740;51.550;6.846;2023-12-20T01:04:37;11.00;;;4.63;;
37907;SDS011;23740;51.550;6.846;2023-12-20T01:07:05;8.07;;;4.18;;
37907;SDS011;23740;51.550;6.846;2023-12-20T01:09:33;10.38;;;4.25;;
37907;SDS011;23740;51.550;6.846;2023-12-20T01:12:01;10.70;;;4.70;;
37907;SDS011;23740;51.550;6.846;2023-12-20T01:14:28;12.63;;;5.45;;
37907;SDS011;23740;51.550;6.846;2023-12-20T01:16:56;10.02;;;4.63;;
37907;SDS011;23740;51.550;6.846;2023-12-20T01:19:26;10.27;;;3.42;;
37907;SDS011;23740;51.550;6.846;2023-12-20T01:21:55;7.15;;;3.28;;
37907;SDS011;23740;51.550;6.846;2023-12-20T01:24:23;8.68;;;3.58;;
37907;SDS011;23740;51.550;6.846;2023-12-20T01:26:51;10.55;;;3.72;;
37907;SDS011;23740;51.550;6.846;2023-12-20T01:29:19;6.30;;;3.45;;
37907;SDS011;23740;51.550;6.846;2023-12-20T01:31:47;9.38;;;4.80;;
37907;SDS011;23740;51.550;6.846;2023-12-20T01:34:15;5.38;;;3.35;;
37907;SDS011;23740;51.550;6.846;2023-12-20T01:36:44;6.70;;;3.15;;
37907;SDS011;23740;51.550;6.846;2023-12-20T01:39:12;6.90;;;3.13;;
37907;SDS011;23740;51.550;6.846;2023-12-20T01:41:53;9.00;;;2.85;;
37907;SDS011;23740;51.550;6.846;2023-12-20T01:44:42;8.25;;;3.63;;
37907;SDS011;23740;51.550;6.846;2023-12-20T01:50:54;8.68;;;3.90;;
37907;SDS011;23740;51.550;6.846;2023-12-20T01:53:25;7.43;;;3.00;;
37907;SDS011;23740;51.550;6.846;2023-12-20T01:55:54;8.00;;;2.80;;
37907;SDS011;23740;51.550;6.846;2023-12-20T01:58:22;9.45;;;3.22;;
37907;SDS011;23740;51.550;6.846;2023-12-20T02:00:50;7.43;;;3.53;;
37907;SDS011;23740;51.550;6.846;2023-12-20T02:03:18;8.32;;;3.45;;
37907;SDS011;23740;51.550;6.846;2023-12-20T02:05:46;6.75;;;3.38;;
37907;SDS011;23740;51.550;6.846;2023-12-20T02:08:15;7.13;;;2.97;;
37907;SDS011;23740;51.550;6.846;2023-12-20T02:10:44;8.40;;;2.80;;
37907;SDS011;23740;51.550;6.846;2023-12-20T02:13:12;9.35;;;3.40;;
37907;SDS011;23740;51.550;6.846;2023-12-20T02:15:40;6.68;;;2.85;;
37907;SDS011;23740;51.550;6.846;2023-12-20T02:18:10;9.18;;;3.42;;
37907;SDS011;23740;51.550;6.846;2023-12-20T02:20:41;7.90;;;2.97;;
37907;SDS011;23740;51.550;6.846;2023-12-20T02:23:10;7.57;;;3.40;;
37907;SDS011;23740;51.550;6.846;2023-12-20T02:25:40;7.47;;;3.35;;
37907;SDS011;23740;51.550;6.846;2023-12-20T02:28:08;10.88;;;3.50;;
37907;SDS011;23740;51.550;6.846;2023-12-20T02:30:36;9.73;;;4.00;;
37907;SDS011;23740;51.550;6.846;2023-12-20T02:33:04;7.53;;;3.25;;
37907;SDS011;23740;51.550;6.846;2023-12-20T02:35:35;7.35;;;3.60;;
37907;SDS011;23740;51.550;6.846;2023-12-20T02:38:03;11.05;;;4.63;;
37907;SDS011;23740;51.550;6.846;2023-12-20T02:40:32;8.48;;;4.18;;
37907;SDS011;23740;51.550;6.846;2023-12-20T02:43:00;12.70;;;4.13;;
37907;SDS011;23740;51.550;6.846;2023-12-20T02:45:28;14.02;;;5.07;;
37907;SDS011;23740;51.550;6.846;2023-12-20T02:47:56;9.65;;;4.72;;
37907;SDS011;23740;51.550;6.846;2023-12-20T02:50:24;9.55;;;3.90;;
37907;SDS011;23740;51.550;6.846;2023-12-20T02:52:52;9.13;;;4.28;;
37907;SDS011;23740;51.550;6.846;2023-12-20T02:55:20;11.38;;;4.45;;
37907;SDS011;23740;51.550;6.846;2023-12-20T02:57:49;9.05;;;3.83;;
37907;SDS011;23740;51.550;6.846;2023-12-20T03:00:17;8.93;;;4.25;;
37907;SDS011;23740;51.550;6.846;2023-12-20T03:02:45;5.47;;;3.03;;
37907;SDS011;23740;51.550;6.846;2023-12-20T03:05:13;6.72;;;3.35;;
37907;SDS011;23740;51.550;6.846;2023-12-20T03:07:41;13.93;;;3.95;;
37907;SDS011;23740;51.550;6.846;2023-12-20T03:10:09;8.68;;;3.30;;
37907;SDS011;23740;51.550;6.846;2023-12-20T03:12:50;8.13;;;3.08;;
37907;SDS011;23740;51.550;6.846;2023-12-20T03:15:18;13.43;;;3.17;;
37907;SDS011;23740;51.550;6.846;2023-12-20T03:17:46;10.50;;;3.22;;
37907;SDS011;23740;51.550;6.846;2023-12-20T03:20:14;8.77;;;2.97;;
37907;SDS011;23740;51.550;6.846;2023-12-20T03:22:42;8.27;;;2.97;;
37907;SDS011;23740;51.550;6.846;2023-12-20T03:25:10;6.95;;;3.05;;
37907;SDS011;23740;51.550;6.846;2023-12-20T03:27:38;7.13;;;2.70;;
37907;SDS011;23740;51.550;6.846;2023-12-20T03:30:08;11.45;;;2.53;;
37907;SDS011;23740;51.550;6.846;2023-12-20T03:32:36;3.53;;;2.05;;
37907;SDS011;23740;51.550;6.846;2023-12-20T03:35:05;8.48;;;2.90;;
37907;SDS011;23740;51.550;6.846;2023-12-20T03:37:33;6.32;;;2.30;;
37907;SDS011;23740;51.550;6.846;2023-12-20T03:40:04;5.82;;;2.45;;
37907;SDS011;23740;51.550;6.846;2023-12-20T03:42:32;9.07;;;2.47;;
37907;SDS011;23740;51.550;6.846;2023-12-20T03:45:00;8.27;;;2.45;;
37907;SDS011;23740;51.550;6.846;2023-12-20T03:47:29;9.45;;;1.88;;
37907;SDS011;23740;51.550;6.846;2023-12-20T03:49:57;9.40;;;2.28;;
37907;SDS011;23740;51.550;6.846;2023-12-20T03:52:25;8.98;;;2.10;;
37907;SDS011;23740;51.550;6.846;2023-12-20T03:54:53;5.28;;;1.70;;
37907;SDS011;23740;51.550;6.846;2023-12-20T03:57:21;6.60;;;2.47;;
37907;SDS011;23740;51.550;6.846;2023-12-20T03:59:48;9.77;;;2.03;;
37907;SDS011;23740;51.550;6.846;2023-12-20T04:02:16;6.30;;;2.33;;
37907;SDS011;23740;51.550;6.846;2023-12-20T04:04:46;5.18;;;1.65;;
37907;SDS011;23740;51.550;6.846;2023-12-20T04:07:14;6.22;;;1.48;;
37907;SDS011;23740;51.550;6.846;2023-12-20T04:09:42;5.18;;;1.45;;
37907;SDS011;23740;51.550;6.846;2023-12-20T04:12:10;4.07;;;1.80;;
37907;SDS011;23740;51.550;6.846;2023-12-20T04:14:37;3.22;;;1.40;;
37907;SDS011;23740;51.550;6.846;2023-12-20T04:17:05;7.47;;;1.60;;
37907;SDS011;23740;51.550;6.846;2023-12-20T04:19:33;6.03;;;1.63;;
37907;SDS011;23740;51.550;6.846;2023-12-20T04:22:02;7.30;;;2.10;;
37907;SDS011;23740;51.550;6.846;2023-12-20T04:24:34;5.47;;;1.83;;
37907;SDS011;23740;51.550;6.846;2023-12-20T04:27:02;3.70;;;1.70;;
37907;SDS011;23740;51.550;6.846;2023-12-20T04:29:31;4.50;;;1.40;;
37907;SDS011;23740;51.550;6.846;2023-12-20T04:31:58;5.93;;;1.75;;
37907;SDS011;23740;51.550;6.846;2023-12-20T04:34:26;4.72;;;1.90;;
37907;SDS011;23740;51.550;6.846;2023-12-20T04:36:54;4.03;;;1.70;;
37907;SDS011;23740;51.550;6.846;2023-12-20T04:39:23;8.98;;;2.03;;
37907;SDS011;23740;51.550;6.846;2023-12-20T04:41:51;8.68;;;2.20;;
37907;SDS011;23740;51.550;6.846;2023-12-20T04:44:19;7.93;;;2.00;;
37907;SDS011;23740;51.550;6.846;2023-12-20T04:46:47;6.00;;;1.77;;
37907;SDS011;23740;51.550;6.846;2023-12-20T04:49:14;7.35;;;1.85;;
37907;SDS011;23740;51.550;6.846;2023-12-20T04:51:42;10.88;;;2.20;;
37907;SDS011;23740;51.550;6.846;2023-12-20T04:54:10;5.00;;;1.83;;
37907;SDS011;23740;51.550;6.846;2023-12-20T04:56:41;6.85;;;2.03;;
37907;SDS011;23740;51.550;6.846;2023-12-20T04:59:09;4.80;;;2.15;;
37907;SDS011;23740;51.550;6.846;2023-12-20T05:01:36;6.18;;;1.38;;
37907;SDS011;23740;51.550;6.846;2023-12-20T05:04:04;3.88;;;1.85;;
37907;SDS011;23740;51.550;6.846;2023-12-20T05:06:32;3.35;;;1.58;;
37907;SDS011;23740;51.550;6.846;2023-12-20T05:09:00;7.13;;;1.70;;
37907;SDS011;23740;51.550;6.846;2023-12-20T05:11:28;6.05;;;1.83;;
37907;SDS011;23740;51.550;6.846;2023-12-20T05:13:57;7.30;;;2.22;;
37907;SDS011;23740;51.550;6.846;2023-12-20T05:16:25;5.90;;;2.08;;
37907;SDS011;23740;51.550;6.846;2023-12-20T05:18:53;6.55;;;2.08;;
37907;SDS011;23740;51.550;6.846;2023-12-20T05:21:24;7.70;;;2.38;;
37907;SDS011;23740;51.550;6.846;2023-12-20T05:23:52;7.70;;;2.15;;
37907;SDS011;23740;51.550;6.846;2023-12-20T05:26:20;8.15;;;2.38;;
37907;SDS011;23740;51.550;6.846;2023-12-20T05:28:48;5.45;;;2.55;;
37907;SDS011;23740;51.550;6.846;2023-12-20T05:31:17;5.88;;;2.05;;
37907;SDS011;23740;51.550;6.846;2023-12-20T05:33:45;13.40;;;2.67;;
37907;SDS011;23740;51.550;6.846;2023-12-20T05:36:13;10.52;;;2.30;;
37907;SDS011;23740;51.550;6.846;2023-12-20T05:38:41;8.55;;;2.50;;
37907;SDS011;23740;51.550;6.846;2023-12-20T05:41:09;8.65;;;2.33;;
37907;SDS011;23740;51.550;6.846;2023-12-20T05:43:37;7.32;;;2.30;;
37907;SDS011;23740;51.550;6.846;2023-12-20T05:46:05;6.82;;;2.53;;
37907;SDS011;23740;51.550;6.846;2023-12-20T05:48:34;6.57;;;3.00;;
37907;SDS011;23740;51.550;6.846;2023-12-20T05:51:02;8.85;;;2.38;;
37907;SDS011;23740;51.550;6.846;2023-12-20T05:53:30;7.38;;;3.05;;
37907;SDS011;23740;51.550;6.846;2023-12-20T05:55:58;6.40;;;2.40;;
37907;SDS011;23740;51.550;6.846;2023-12-20T05:58:26;8.45;;;2.67;;
37907;SDS011;23740;51.550;6.846;2023-12-20T06:00:55;6.80;;;2.60;;
37907;SDS011;23740;51.550;6.846;2023-12-20T06:03:23;8.00;;;2.33;;
37907;SDS011;23740;51.550;6.846;2023-12-20T06:05:52;8.32;;;2.58;;
37907;SDS011;23740;51.550;6.846;2023-12-20T06:08:36;8.77;;;2.72;;
37907;SDS011;23740;51.550;6.846;2023-12-20T06:11:04;7.18;;;2.42;;
37907;SDS011;23740;51.550;6.846;2023-12-20T06:13:31;9.50;;;3.25;;
37907;SDS011;23740;51.550;6.846;2023-12-20T06:15:59;6.90;;;2.30;;
37907;SDS011;23740;51.550;6.846;2023-12-20T06:18:27;7.60;;;2.35;;
37907;SDS011;23740;51.550;6.846;2023-12-20T06:20:56;8.50;;;3.47;;
37907;SDS011;23740;51.550;6.846;2023-12-20T06:23:24;8.60;;;2.80;;
37907;SDS011;23740;51.550;6.846;2023-12-20T06:25:54;12.15;;;2.95;;
37907;SDS011;23740;51.550;6.846;2023-12-20T06:28:22;7.72;;;3.05;;
37907;SDS011;23740;51.550;6.846;2023-12-20T06:30:50;9.40;;;2.53;;
37907;SDS011;23740;51.550;6.846;2023-12-20T06:33:19;6.55;;;2.22;;
37907;SDS011;23740;51.550;6.846;2023-12-20T06:35:50;6.10;;;2.80;;
37907;SDS011;23740;51.550;6.846;2023-12-20T06:38:20;6.43;;;2.28;;
37907;SDS011;23740;51.550;6.846;2023-12-20T06:40:48;9.73;;;2.83;;
37907;SDS011;23740;51.550;6.846;2023-12-20T06:43:16;5.55;;;2.55;;
37907;SDS011;23740;51.550;6.846;2023-12-20T06:46:04;11.40;;;3.28;;
37907;SDS011;23740;51.550;6.846;2023-12-20T06:48:32;4.57;;;2.08;;
37907;SDS011;23740;51.550;6.846;2023-12-20T06:51:00;5.60;;;3.33;;
37907;SDS011;23740;51.550;6.846;2023-12-20T06:53:30;11.13;;;3.20;;
37907;SDS011;23740;51.550;6.846;2023-12-20T06:55:58;9.48;;;2.72;;
37907;SDS011;23740;51.550;6.846;2023-12-20T06:58:26;8.27;;;2.35;;
37907;SDS011;23740;51.550;6.846;2023-12-20T07:00:54;8.35;;;3.38;;
37907;SDS011;23740;51.550;6.846;2023-12-20T07:03:22;8.43;;;3.40;;
37907;SDS011;23740;51.550;6.846;2023-12-20T07:05:50;7.35;;;2.33;;
37907;SDS011;23740;51.550;6.846;2023-12-20T07:08:18;10.15;;;2.80;;
37907;SDS011;23740;51.550;6.846;2023-12-20T07:10:47;7.78;;;2.33;;
37907;SDS011;23740;51.550;6.846;2023-12-20T07:13:15;6.95;;;2.78;;
37907;SDS011;23740;51.550;6.846;2023-12-20T07:15:43;7.32;;;3.28;;
37907;SDS011;23740;51.550;6.846;2023-12-20T07:18:11;11.07;;;3.00;;
37907;SDS011;23740;51.550;6.846;2023-12-20T07:20:38;6.35;;;1.73;;
37907;SDS011;23740;51.550;6.846;2023-12-20T07:23:06;5.35;;;2.75;;
37907;SDS011;23740;51.550;6.846;2023-12-20T07:25:34;7.32;;;2.67;;
37907;SDS011;23740;51.550;6.846;2023-12-20T07:28:04;5.57;;;2.88;;
37907;SDS011;23740;51.550;6.846;2023-12-20T07:30:32;8.25;;;2.53;;
37907;SDS011;23740;51.550;6.846;2023-12-20T07:33:00;8.25;;;2.33;;
37907;SDS011;23740;51.550;6.846;2023-12-20T07:35:29;4.43;;;1.95;;
37907;SDS011;23740;51.550;6.846;2023-12-20T07:37:57;10.50;;;3.28;;
37907;SDS011;23740;51.550;6.846;2023-12-20T07:40:25;8.73;;;2.28;;
37907;SDS011;23740;51.550;6.846;2023-12-20T07:42:53;6.47;;;2.53;;
37907;SDS011;23740;51.550;6.846;2023-12-20T07:45:22;9.38;;;2.58;;
37907;SDS011;23740;51.550;6.846;2023-12-20T07:47:50;7.38;;;2.10;;
37907;SDS011;23740;51.550;6.846;2023-12-20T07:50:20;9.63;;;2.88;;
37907;SDS011;23740;51.550;6.846;2023-12-20T07:52:49;9.40;;;2.80;;
37907;SDS011;23740;51.550;6.846;2023-12-20T07:55:16;8.73;;;2.72;;
37907;SDS011;23740;51.550;6.846;2023-12-20T07:57:44;9.80;;;2.67;;
37907;SDS011;23740;51.550;6.846;2023-12-20T08:00:13;8.82;;;2.45;;
37907;SDS011;23740;51.550;6.846;2023-12-20T08:02:43;5.40;;;2.13;;
37907;SDS011;23740;51.550;6.846;2023-12-20T08:05:11;5.90;;;2.40;;
37907;SDS011;23740;51.550;6.846;2023-12-20T08:07:41;6.03;;;2.55;;
37907;SDS011;23740;51.550;6.846;2023-12-20T08:10:10;8.27;;;3.00;;
37907;SDS011;23740;51.550;6.846;2023-12-20T08:12:40;6.55;;;2.72;;
37907;SDS011;23740;51.550;6.846;2023-12-20T08:15:08;5.82;;;2.75;;
37907;SDS011;23740;51.550;6.846;2023-12-20T08:17:37;12.27;;;3.50;;
37907;SDS011;23740;51.550;6.846;2023-12-20T08:20:07;5.43;;;2.05;;
37907;SDS011;23740;51.550;6.846;2023-12-20T08:22:35;6.70;;;2.75;;
37907;SDS011;23740;51.550;6.846;2023-12-20T08:25:03;11.20;;;2.70;;
37907;SDS011;23740;51.550;6.846;2023-12-20T08:27:32;10.13;;;2.83;;
37907;SDS011;23740;51.550;6.846;2023-12-20T08:30:02;4.43;;;2.58;;
37907;SDS011;23740;51.550;6.846;2023-12-20T08:32:30;6.65;;;2.58;;
37907;SDS011;23740;51.550;6.846;2023-12-20T08:34:58;4.00;;;1.75;;
37907;SDS011;23740;51.550;6.846;2023-12-20T08:37:31;3.42;;;2.05;;
37907;SDS011;23740;51.550;6.846;2023-12-20T08:39:59;6.72;;;1.85;;
37907;SDS011;23740;51.550;6.846;2023-12-20T08:42:26;12.23;;;2.75;;
37907;SDS011;23740;51.550;6.846;2023-12-20T08:44:57;9.80;;;2.88;;
37907;SDS011;23740;51.550;6.846;2023-12-20T08:47:25;6.03;;;2.25;;
37907;SDS011;23740;51.550;6.846;2023-12-20T08:49:53;7.90;;;2.55;;
37907;SDS011;23740;51.550;6.846;2023-12-20T08:52:23;5.90;;;2.20;;
37907;SDS011;23740;51.550;6.846;2023-12-20T08:54:53;7.53;;;1.60;;
37907;SDS011;23740;51.550;6.846;2023-12-20T08:57:21;6.32;;;2.50;;
37907;SDS011;23740;51.550;6.846;2023-12-20T08:59:50;5.93;;;2.20;;
37907;SDS011;23740;51.550;6.846;2023-12-20T09:02:17;7.95;;;2.80;;
37907;SDS011;23740;51.550;6.846;2023-12-20T09:04:45;5.22;;;2.35;;
37907;SDS011;23740;51.550;6.846;2023-12-20T09:07:23;8.82;;;2.83;;
37907;SDS011;23740;51.550;6.846;2023-12-20T09:09:52;7.43;;;2.28;;
37907;SDS011;23740;51.550;6.846;2023-12-20T09:12:20;8.75;;;1.88;;
37907;SDS011;23740;51.550;6.846;2023-12-20T09:14:48;4.95;;;2.25;;
37907;SDS011;23740;51.550;6.846;2023-12-20T09:17:17;9.32;;;2.50;;
37907;SDS011;23740;51.550;6.846;2023-12-20T09:19:46;5.38;;;2.58;;
37907;SDS011;23740;51.550;6.846;2023-12-20T09:22:14;7.90;;;1.98;;
37907;SDS011;23740;51.550;6.846;2023-12-20T09:24:42;9.07;;;2.35;;
37907;SDS011;23740;51.550;6.846;2023-12-20T09:27:12;7.03;;;2.05;;
37907;SDS011;23740;51.550;6.846;2023-12-20T09:29:43;6.45;;;2.05;;
37907;SDS011;23740;51.550;6.846;2023-12-20T09:32:11;8.45;;;2.65;;
37907;SDS011;23740;51.550;6.846;2023-12-20T09:34:39;5.90;;;2.65;;
37907;SDS011;23740;51.550;6.846;2023-12-20T09:37:08;5.35;;;2.58;;
37907;SDS011;23740;51.550;6.846;2023-12-20T09:39:36;8.85;;;2.25;;
37907;SDS011;23740;51.550;6.846;2023-12-20T09:42:04;5.70;;;2.17;;
37907;SDS011;23740;51.550;6.846;2023-12-20T09:44:35;5.70;;;2.28;;
37907;SDS011;23740;51.550;6.846;2023-12-20T09:47:13;6.20;;;2.05;;
37907;SDS011;23740;51.550;6.846;2023-12-20T09:49:42;4.25;;;1.83;;
37907;SDS011;23740;51.550;6.846;2023-12-20T09:52:14;4.80;;;2.33;;
37907;SDS011;23740;51.550;6.846;2023-12-20T09:54:41;7.80;;;2.20;;
37907;SDS011;23740;51.550;6.846;2023-12-20T09:57:11;10.18;;;2.50;;
37907;SDS011;23740;51.550;6.846;2023-12-20T09:59:40;7.63;;;2.13;;
37907;SDS011;23740;51.550;6.846;2023-12-20T10:02:09;7.85;;;2.22;;
37907;SDS011;23740;51.550;6.846;2023-12-20T10:04:41;7.75;;;2.17;;
37907;SDS011;23740;51.550;6.846;2023-12-20T10:07:15;7.45;;;2.25;;
37907;SDS011;23740;51.550;6.846;2023-12-20T10:09:44;6.20;;;1.55;;
37907;SDS011;23740;51.550;6.846;2023-12-20T10:12:13;5.03;;;2.53;;
37907;SDS011;23740;51.550;6.846;2023-12-20T10:14:42;7.60;;;2.50;;
37907;SDS011;23740;51.550;6.846;2023-12-20T10:17:10;6.88;;;2.45;;
37907;SDS011;23740;51.550;6.846;2023-12-20T10:19:38;8.43;;;2.22;;
37907;SDS011;23740;51.550;6.846;2023-12-20T10:22:08;7.05;;;1.83;;
37907;SDS011;23740;51.550;6.846;2023-12-20T10:24:35;6.45;;;2.22;;
37907;SDS011;23740;51.550;6.846;2023-12-20T10:27:07;7.13;;;2.33;;
37907;SDS011;23740;51.550;6.846;2023-12-20T10:29:35;11.93;;;2.38;;
37907;SDS011;23740;51.550;6.846;2023-12-20T10:35:01;8.80;;;2.55;;
37907;SDS011;23740;51.550;6.846;2023-12-20T10:37:29;12.20;;;2.75;;
37907;SDS011;23740;51.550;6.846;2023-12-20T10:39:57;16.70;;;9.65;;
37907;SDS011;23740;51.550;6.846;2023-12-20T10:42:35;11.43;;;2.63;;
37907;SDS011;23740;51.550;6.846;2023-12-20T10:45:04;6.60;;;2.47;;
37907;SDS011;23740;51.550;6.846;2023-12-20T10:47:34;5.90;;;2.58;;
37907;SDS011;23740;51.550;6.846;2023-12-20T10:50:08;6.72;;;2.90;;
37907;SDS011;23740;51.550;6.846;2023-12-20T10:52:36;9.00;;;2.50;;
37907;SDS011;23740;51.550;6.846;2023-12-20T10:55:06;7.65;;;2.40;;
37907;SDS011;23740;51.550;6.846;2023-12-20T10:57:34;5.72;;;2.08;;
37907;SDS011;23740;51.550;6.846;2023-12-20T11:00:04;8.55;;;1.92;;
37907;SDS011;23740;51.550;6.846;2023-12-20T11:02:38;7.95;;;2.47;;
37907;SDS011;23740;51.550;6.846;2023-12-20T11:05:10;3.38;;;1.90;;
37907;SDS011;23740;51.550;6.846;2023-12-20T11:07:45;6.95;;;2.70;;
37907;SDS011;23740;51.550;6.846;2023-12-20T11:10:16;9.35;;;2.97;;
37907;SDS011;23740;51.550;6.846;2023-12-20T11:12:49;5.47;;;2.63;;
37907;SDS011;23740;51.550;6.846;2023-12-20T11:15:19;4.85;;;2.40;;
37907;SDS011;23740;51.550;6.846;2023-12-20T11:17:53;6.30;;;2.20;;
37907;SDS011;23740;51.550;6.846;2023-12-20T11:20:22;5.43;;;3.08;;
37907;SDS011;23740;51.550;6.846;2023-12-20T11:22:54;6.32;;;2.80;;
37907;SDS011;23740;51.550;6.846;2023-12-20T11:25:23;7.88;;;2.42;;
37907;SDS011;23740;51.550;6.846;2023-12-20T11:28:08;5.32;;;2.55;;
37907;SDS011;23740;51.550;6.846;2023-12-20T11:30:41;7.00;;;2.50;;
37907;SDS011;23740;51.550;6.846;2023-12-20T11:33:11;7.82;;;2.58;;
37907;SDS011;23740;51.550;6.846;2023-12-20T11:35:39;8.32;;;2.95;;
37907;SDS011;23740;51.550;6.846;2023-12-20T11:38:08;6.35;;;2.28;;
37907;SDS011;23740;51.550;6.846;2023-12-20T11:40:36;8.98;;;2.70;;
37907;SDS011;23740;51.550;6.846;2023-12-20T11:43:04;7.65;;;2.13;;
37907;SDS011;23740;51.550;6.846;2023-12-20T11:45:33;6.68;;;2.63;;
37907;SDS011;23740;51.550;6.846;2023-12-20T11:48:02;3.72;;;1.95;;
37907;SDS011;23740;51.550;6.846;2023-12-20T11:50:31;6.45;;;2.40;;
37907;SDS011;23740;51.550;6.846;2023-12-20T11:52:59;9.45;;;2.60;;
37907;SDS011;23740;51.550;6.846;2023-12-20T11:55:27;9.07;;;2.60;;
37907;SDS011;23740;51.550;6.846;2023-12-20T11:57:55;7.25;;;3.05;;
37907;SDS011;23740;51.550;6.846;2023-12-20T12:00:25;7.47;;;2.90;;
37907;SDS011;23740;51.550;6.846;2023-12-20T12:02:57;6.57;;;2.83;;
37907;SDS011;23740;51.550;6.846;2023-12-20T12:05:25;8.98;;;2.90;;
37907;SDS011;23740;51.550;6.846;2023-12-20T12:07:57;7.75;;;2.70;;
37907;SDS011;23740;51.550;6.846;2023-12-20T12:10:24;10.05;;;3.45;;
37907;SDS011;23740;51.550;6.846;2023-12-20T12:12:57;7.20;;;2.90;;
37907;SDS011;23740;51.550;6.846;2023-12-20T12:15:25;8.93;;;2.88;;
37907;SDS011;23740;51.550;6.846;2023-12-20T12:17:53;7.10;;;3.15;;
37907;SDS011;23740;51.550;6.846;2023-12-20T12:20:25;7.35;;;3.85;;
37907;SDS011;23740;51.550;6.846;2023-12-20T12:23:00;5.28;;;3.28;;
37907;SDS011;23740;51.550;6.846;2023-12-20T12:25:33;9.23;;;3.60;;
37907;SDS011;23740;51.550;6.846;2023-12-20T12:28:08;5.95;;;3.13;;
37907;SDS011;23740;51.550;6.846;2023-12-20T12:30:36;6.57;;;3.10;;
37907;SDS011;23740;51.550;6.846;2023-12-20T12:33:15;7.70;;;2.47;;
37907;SDS011;23740;51.550;6.846;2023-12-20T12:35:43;9.02;;;3.25;;
37907;SDS011;23740;51.550;6.846;2023-12-20T12:38:21;7.38;;;2.47;;
37907;SDS011;23740;51.550;6.846;2023-12-20T12:40:49;5.72;;;2.65;;
37907;SDS011;23740;51.550;6.846;2023-12-20T12:43:19;10.55;;;2.83;;
37907;SDS011;23740;51.550;6.846;2023-12-20T12:45:50;5.88;;;2.90;;
37907;SDS011;23740;51.550;6.846;2023-12-20T12:48:18;9.13;;;3.33;;
37907;SDS011;23740;51.550;6.846;2023-12-20T12:50:47;7.25;;;2.90;;
37907;SDS011;23740;51.550;6.846;2023-12-20T12:53:14;4.85;;;2.30;;
37907;SDS011;23740;51.550;6.846;2023-12-20T12:55:44;5.95;;;2.33;;
37907;SDS011;23740;51.550;6.846;2023-12-20T12:58:12;6.00;;;2.72;;
37907;SDS011;23740;51.550;6.846;2023-12-20T13:00:39;7.68;;;2.72;;
37907;SDS011;23740;51.550;6.846;2023-12-20T13:03:08;8.52;;;2.95;;
37907;SDS011;23740;51.550;6.846;2023-12-20T13:05:36;6.35;;;2.90;;
37907;SDS011;23740;51.550;6.846;2023-12-20T13:08:08;6.38;;;2.92;;
37907;SDS011;23740;51.550;6.846;2023-12-20T13:10:38;5.97;;;2.85;;
37907;SDS011;23740;51.550;6.846;2023-12-20T13:13:08;8.77;;;3.45;;
37907;SDS011;23740;51.550;6.846;2023-12-20T13:15:36;4.93;;;2.63;;
37907;SDS011;23740;51.550;6.846;2023-12-20T13:18:06;6.40;;;2.85;;
37907;SDS011;23740;51.550;6.846;2023-12-20T13:20:34;6.53;;;3.05;;
37907;SDS011;23740;51.550;6.846;2023-12-20T13:23:06;3.60;;;2.65;;
37907;SDS011;23740;51.550;6.846;2023-12-20T13:25:35;5.60;;;2.72;;
37907;SDS011;23740;51.550;6.846;2023-12-20T13:28:03;8.30;;;3.30;;
37907;SDS011;23740;51.550;6.846;2023-12-20T13:30:33;7.50;;;2.90;;
37907;SDS011;23740;51.550;6.846;2023-12-20T13:33:02;6.60;;;2.88;;
37907;SDS011;23740;51.550;6.846;2023-12-20T13:35:30;5.13;;;2.65;;
37907;SDS011;23740;51.550;6.846;2023-12-20T13:38:01;6.43;;;3.03;;
37907;SDS011;23740;51.550;6.846;2023-12-20T13:40:29;4.30;;;2.75;;
37907;SDS011;23740;51.550;6.846;2023-12-20T13:42:58;4.47;;;1.88;;
37907;SDS011;23740;51.550;6.846;2023-12-20T13:45:26;6.32;;;3.50;;
37907;SDS011;23740;51.550;6.846;2023-12-20T13:47:58;9.85;;;3.70;;
37907;SDS011;23740;51.550;6.846;2023-12-20T13:50:26;11.85;;;3.33;;
37907;SDS011;23740;51.550;6.846;2023-12-20T13:52:57;7.43;;;2.55;;
37907;SDS011;23740;51.550;6.846;2023-12-20T13:55:24;7.65;;;4.32;;
37907;SDS011;23740;51.550;6.846;2023-12-20T13:57:54;6.75;;;5.15;;
37907;SDS011;23740;51.550;6.846;2023-12-20T14:00:22;11.45;;;3.72;;
37907;SDS011;23740;51.550;6.846;2023-12-20T14:02:50;5.78;;;3.15;;
37907;SDS011;23740;51.550;6.846;2023-12-20T14:05:21;6.90;;;3.60;;
37907;SDS011;23740;51.550;6.846;2023-12-20T14:07:54;8.40;;;4.43;;
37907;SDS011;23740;51.550;6.846;2023-12-20T14:10:24;7.53;;;3.10;;
37907;SDS011;23740;51.550;6.846;2023-12-20T14:12:53;8.00;;;3.28;;
37907;SDS011;23740;51.550;6.846;2023-12-20T14:15:21;10.00;;;3.88;;
37907;SDS011;23740;51.550;6.846;2023-12-20T14:17:52;4.32;;;2.97;;
37907;SDS011;23740;51.550;6.846;2023-12-20T14:20:22;8.18;;;3.53;;
37907;SDS011;23740;51.550;6.846;2023-12-20T14:22:50;6.20;;;3.72;;
37907;SDS011;23740;51.550;6.846;2023-12-20T14:25:18;8.23;;;3.50;;
37907;SDS011;23740;51.550;6.846;2023-12-20T14:27:46;7.32;;;3.90;;
37907;SDS011;23740;51.550;6.846;2023-12-20T14:30:14;7.25;;;3.25;;
37907;SDS011;23740;51.550;6.846;2023-12-20T14:32:43;9.38;;;3.83;;
37907;SDS011;23740;51.550;6.846;2023-12-20T14:35:14;6.22;;;3.35;;
37907;SDS011;23740;51.550;6.846;2023-12-20T14:37:47;9.32;;;3.75;;
37907;SDS011;23740;51.550;6.846;2023-12-20T14:40:15;9.68;;;3.83;;
37907;SDS011;23740;51.550;6.846;2023-12-20T14:42:43;6.15;;;3.28;;
37907;SDS011;23740;51.550;6.846;2023-12-20T14:45:11;9.60;;;3.35;;
37907;SDS011;23740;51.550;6.846;2023-12-20T14:47:40;7.55;;;3.42;;
37907;SDS011;23740;51.550;6.846;2023-12-20T14:50:09;6.75;;;3.85;;
37907;SDS011;23740;51.550;6.846;2023-12-20T14:52:38;5.20;;;3.40;;
37907;SDS011;23740;51.550;6.846;2023-12-20T14:55:07;9.50;;;3.80;;
37907;SDS011;23740;51.550;6.846;2023-12-20T14:57:35;4.93;;;3.42;;
37907;SDS011;23740;51.550;6.846;2023-12-20T15:00:07;10.68;;;3.70;;
37907;SDS011;23740;51.550;6.846;2023-12-20T15:02:37;3.50;;;2.83;;
37907;SDS011;23740;51.550;6.846;2023-12-20T15:05:05;11.50;;;4.72;;